createdAt,value
2022-11-29T00:00:20.366Z,26.60
2022-11-29T00:00:52.665Z,26.15
2022-11-29T00:01:29.016Z,25.83
2022-11-29T00:02:01.203Z,27.48
2022-11-29T00:02:36.083Z,51.35
2022-11-29T00:03:08.355Z,28.77
2022-11-29T00:03:40.522Z,39.20
2022-11-29T00:04:15.171Z,28.92
2022-11-29T00:04:47.297Z,21.40
2022-11-29T00:05:19.380Z,28.63
2022-11-29T00:05:54.362Z,28.73
2022-11-29T00:06:28.148Z,27.75
2022-11-29T00:07:02.824Z,50.10
2022-11-29T00:07:34.945Z,17.77
2022-11-29T00:08:07.179Z,18.10
2022-11-29T00:08:41.340Z,30.60
2022-11-29T00:09:16.440Z,30.38
2022-11-29T00:09:48.517Z,19.25
2022-11-29T00:10:20.610Z,22.15
2022-11-29T00:10:55.296Z,22.85
2022-11-29T00:11:44.669Z,18.48
2022-11-29T00:12:16.809Z,21.38
2022-11-29T00:12:51.533Z,21.33
2022-11-29T00:13:26.230Z,16.45
2022-11-29T00:13:58.285Z,19.58
2022-11-29T00:14:32.965Z,19.58
2022-11-29T00:15:05.751Z,19.48
2022-11-29T00:15:38.589Z,19.50
2022-11-29T00:16:14.864Z,19.88
2022-11-29T00:16:51.110Z,16.88
2022-11-29T00:17:23.277Z,17.25
2022-11-29T00:17:57.947Z,21.10
2022-11-29T00:18:30.029Z,17.15
2022-11-29T00:19:02.725Z,20.80
2022-11-29T00:19:38.878Z,15.35
2022-11-29T00:20:12.373Z,21.85
2022-11-29T00:20:44.452Z,16.58
2022-11-29T00:21:19.125Z,18.08
2022-11-29T00:21:51.384Z,19.08
2022-11-29T00:22:25.255Z,30.85
2022-11-29T00:22:59.931Z,17.33
2022-11-29T00:23:32.049Z,17.90
2022-11-29T00:24:04.549Z,17.80
2022-11-29T00:24:39.303Z,17.40
2022-11-29T00:25:11.418Z,17.92
2022-11-29T00:25:43.479Z,16.27
2022-11-29T00:26:15.554Z,21.38
2022-11-29T00:26:50.277Z,16.65
2022-11-29T00:27:22.382Z,20.92
2022-11-29T00:27:57.500Z,17.95
2022-11-29T00:28:32.182Z,19.02
2022-11-29T00:29:04.424Z,20.75
2022-11-29T00:29:36.623Z,11.85
2022-11-29T00:30:12.565Z,17.35
2022-11-29T00:30:44.747Z,17.38
2022-11-29T00:31:18.113Z,18.70
2022-11-29T00:31:52.813Z,17.67
2022-11-29T00:32:24.908Z,21.52
2022-11-29T00:32:57.253Z,16.20
2022-11-29T00:33:31.925Z,19.38
2022-11-29T00:34:04.809Z,15.63
2022-11-29T00:34:39.870Z,22.60
2022-11-29T00:35:12.387Z,17.60
2022-11-29T00:35:44.481Z,21.48
2022-11-29T00:36:19.419Z,26.60
2022-11-29T00:36:51.571Z,18.08
2022-11-29T00:37:23.711Z,17.40
2022-11-29T00:37:58.426Z,18.35
2022-11-29T00:38:30.592Z,19.67
2022-11-29T00:39:03.419Z,16.02
2022-11-29T00:39:38.091Z,18.67
2022-11-29T00:40:10.997Z,18.00
2022-11-29T00:40:43.114Z,21.95
2022-11-29T00:41:15.270Z,14.88
2022-11-29T00:41:49.934Z,20.38
2022-11-29T00:42:22.016Z,18.40
2022-11-29T00:42:56.673Z,21.15
2022-11-29T00:43:28.812Z,20.60
2022-11-29T00:44:03.745Z,18.02
2022-11-29T00:44:35.872Z,18.13
2022-11-29T00:45:09.571Z,17.17
2022-11-29T00:45:44.336Z,19.15
2022-11-29T00:46:16.600Z,19.52
2022-11-29T00:46:49.534Z,17.63
2022-11-29T00:47:24.185Z,18.67
2022-11-29T00:47:56.294Z,17.23
2022-11-29T00:48:28.457Z,16.80
2022-11-29T00:49:03.393Z,20.77
2022-11-29T00:49:35.520Z,16.30
2022-11-29T00:50:08.423Z,17.17
2022-11-29T00:50:43.159Z,16.48
2022-11-29T00:51:15.299Z,22.13
2022-11-29T00:51:47.515Z,20.00
2022-11-29T00:52:22.241Z,19.58
2022-11-29T00:52:54.306Z,20.65
2022-11-29T00:53:26.374Z,19.60
2022-11-29T00:53:58.477Z,18.30
2022-11-29T00:54:33.243Z,15.30
2022-11-29T00:55:06.555Z,17.42
2022-11-29T00:55:38.637Z,18.38
2022-11-29T00:56:11.155Z,17.60
2022-11-29T00:56:45.838Z,18.38
2022-11-29T00:57:17.964Z,23.83
2022-11-29T00:57:50.050Z,18.67
2022-11-29T00:58:27.543Z,17.58
2022-11-29T00:58:59.649Z,20.02
2022-11-29T00:59:34.314Z,19.45
2022-11-29T01:00:09.474Z,16.95
2022-11-29T01:00:42.391Z,19.45
2022-11-29T01:01:17.309Z,22.33
2022-11-29T01:01:49.559Z,20.85
2022-11-29T01:02:24.414Z,19.80
2022-11-29T01:02:56.696Z,16.00
2022-11-29T01:03:28.784Z,22.63
2022-11-29T01:04:04.609Z,18.60
2022-11-29T01:04:36.702Z,18.52
2022-11-29T01:05:09.376Z,19.63
2022-11-29T01:05:44.202Z,23.02
2022-11-29T01:06:18.789Z,20.25
2022-11-29T01:06:51.193Z,22.00
2022-11-29T01:07:25.897Z,17.10
2022-11-29T01:07:58.174Z,20.20
2022-11-29T01:08:30.326Z,19.75
2022-11-29T01:09:05.066Z,13.85
2022-11-29T01:09:37.180Z,16.23
2022-11-29T01:10:10.261Z,21.25
2022-11-29T01:10:45.033Z,19.05
2022-11-29T01:11:19.891Z,20.33
2022-11-29T01:11:52.085Z,22.00
2022-11-29T01:12:26.772Z,20.10
2022-11-29T01:12:58.877Z,19.80
2022-11-29T01:13:33.836Z,21.13
2022-11-29T01:14:08.513Z,17.98
2022-11-29T01:14:40.582Z,23.90
2022-11-29T01:15:13.320Z,16.35
2022-11-29T01:15:47.957Z,17.83
2022-11-29T01:16:20.534Z,21.05
2022-11-29T01:16:55.337Z,19.55
2022-11-29T01:17:27.441Z,22.55
2022-11-29T01:17:59.913Z,21.67
2022-11-29T01:18:32.562Z,19.85
2022-11-29T01:19:07.828Z,25.25
2022-11-29T01:19:39.929Z,23.33
2022-11-29T01:20:13.666Z,20.08
2022-11-29T01:20:45.789Z,15.32
2022-11-29T01:21:22.920Z,20.52
2022-11-29T01:21:55.061Z,23.38
2022-11-29T01:22:27.206Z,23.02
2022-11-29T01:23:02.038Z,19.27
2022-11-29T01:23:35.918Z,18.73
2022-11-29T01:24:10.698Z,18.92
2022-11-29T01:24:43.080Z,17.13
2022-11-29T01:25:15.797Z,18.52
2022-11-29T01:25:56.805Z,22.98
2022-11-29T01:26:33.621Z,21.55
2022-11-29T01:27:05.759Z,18.25
2022-11-29T01:27:37.885Z,21.50
2022-11-29T01:28:09.933Z,18.33
2022-11-29T01:28:49.125Z,27.60
2022-11-29T01:29:21.192Z,23.67
2022-11-29T01:29:53.283Z,19.13
2022-11-29T01:30:28.367Z,22.13
2022-11-29T01:31:05.918Z,20.58
2022-11-29T01:31:40.684Z,36.90
2022-11-29T01:32:12.816Z,19.52
2022-11-29T01:32:44.937Z,21.60
2022-11-29T01:33:17.004Z,20.60
2022-11-29T01:33:51.858Z,19.45
2022-11-29T01:34:23.906Z,28.55
2022-11-29T01:34:55.966Z,21.60
2022-11-29T01:35:30.728Z,19.20
2022-11-29T01:36:03.813Z,17.35
2022-11-29T01:36:36.008Z,18.73
2022-11-29T01:37:10.702Z,21.23
2022-11-29T01:37:42.789Z,19.80
2022-11-29T01:38:14.910Z,17.40
2022-11-29T01:38:49.633Z,25.35
2022-11-29T01:39:21.705Z,18.05
2022-11-29T01:39:53.789Z,21.45
2022-11-29T01:40:28.451Z,22.65
2022-11-29T01:41:03.586Z,18.85
2022-11-29T01:41:37.559Z,23.70
2022-11-29T01:42:13.477Z,29.17
2022-11-29T01:42:45.530Z,22.52
2022-11-29T01:43:18.525Z,23.33
2022-11-29T01:44:03.483Z,19.60
2022-11-29T01:45:06.142Z,22.13
2022-11-29T01:45:41.415Z,17.23
2022-11-29T01:46:13.566Z,19.55
2022-11-29T01:46:47.578Z,35.20
2022-11-29T01:47:22.322Z,32.47
2022-11-29T01:47:58.150Z,24.70
2022-11-29T01:48:33.518Z,23.50
2022-11-29T01:49:12.297Z,36.33
2022-11-29T01:49:47.696Z,26.92
2022-11-29T01:50:21.167Z,23.58
2022-11-29T01:50:58.018Z,23.42
2022-11-29T01:51:31.813Z,22.35
2022-11-29T01:52:06.766Z,20.23
2022-11-29T01:52:41.967Z,21.17
2022-11-29T01:53:15.090Z,16.85
2022-11-29T01:53:47.323Z,23.83
2022-11-29T01:54:23.718Z,21.65
2022-11-29T01:54:58.644Z,18.20
2022-11-29T01:55:31.291Z,20.40
2022-11-29T01:56:07.905Z,18.88
2022-11-29T01:56:40.470Z,22.40
2022-11-29T01:57:13.635Z,18.75
2022-11-29T01:57:48.437Z,19.40
2022-11-29T01:58:21.079Z,22.17
2022-11-29T01:58:53.273Z,16.50
2022-11-29T01:59:32.478Z,25.08
2022-11-29T02:00:09.002Z,19.65
2022-11-29T02:00:47.422Z,17.85
2022-11-29T02:01:22.303Z,23.67
2022-11-29T02:02:00.581Z,16.90
2022-11-29T02:02:37.075Z,22.05
2022-11-29T02:03:14.073Z,20.08
2022-11-29T02:03:46.339Z,17.90
2022-11-29T02:04:19.516Z,17.50
2022-11-29T02:04:51.813Z,20.92
2022-11-29T02:05:28.065Z,18.10
2022-11-29T02:06:01.725Z,18.63
2022-11-29T02:06:34.497Z,14.13
2022-11-29T02:07:09.154Z,19.77
2022-11-29T02:07:43.473Z,16.70
2022-11-29T02:08:20.577Z,17.30
2022-11-29T02:08:55.262Z,16.58
2022-11-29T02:09:27.405Z,15.05
2022-11-29T02:09:59.792Z,18.30
2022-11-29T02:10:45.403Z,14.80
2022-11-29T02:11:55.073Z,16.90
2022-11-29T02:12:40.594Z,21.95
2022-11-29T02:13:20.570Z,15.13
2022-11-29T02:14:08.392Z,18.60
2022-11-29T02:14:55.489Z,17.20
2022-11-29T02:15:46.130Z,13.68
2022-11-29T02:16:24.885Z,16.40
2022-11-29T02:17:02.620Z,13.85
2022-11-29T02:17:51.111Z,13.63
2022-11-29T02:18:37.237Z,20.90
2022-11-29T02:19:31.845Z,17.08
2022-11-29T02:20:32.828Z,13.65
2022-11-29T02:21:32.685Z,12.45
2022-11-29T02:22:10.823Z,16.80
2022-11-29T02:22:50.625Z,16.90
2022-11-29T02:23:55.104Z,10.57
2022-11-29T02:24:55.726Z,15.93
2022-11-29T02:25:48.959Z,15.75
2022-11-29T02:26:36.578Z,15.75
2022-11-29T02:27:38.098Z,14.93
2022-11-29T02:28:35.898Z,17.17
2022-11-29T02:29:32.416Z,14.35
2022-11-29T02:30:19.732Z,14.45
2022-11-29T02:31:26.285Z,17.40
2022-11-29T02:32:44.486Z,16.63
2022-11-29T02:33:51.735Z,14.70
2022-11-29T02:34:58.667Z,16.95
2022-11-29T02:35:46.822Z,15.15
2022-11-29T02:36:44.841Z,15.00
2022-11-29T02:37:32.683Z,13.90
2022-11-29T02:38:21.289Z,12.20
2022-11-29T02:39:40.746Z,11.45
2022-11-29T02:40:27.598Z,12.85
2022-11-29T02:41:25.155Z,12.80
2022-11-29T02:42:21.724Z,13.95
2022-11-29T02:43:19.472Z,15.68
2022-11-29T02:44:16.622Z,14.85
2022-11-29T02:45:07.391Z,14.40
2022-11-29T02:45:52.824Z,14.32
2022-11-29T02:47:02.119Z,14.10
2022-11-29T02:47:55.568Z,15.02
2022-11-29T02:48:45.121Z,13.77
2022-11-29T02:49:29.691Z,15.93
2022-11-29T02:50:19.450Z,15.65
2022-11-29T02:51:01.456Z,10.15
2022-11-29T02:51:41.330Z,10.75
2022-11-29T02:52:20.857Z,12.15
2022-11-29T02:53:05.858Z,20.35
2022-11-29T02:53:44.191Z,12.02
2022-11-29T02:54:24.102Z,15.80
2022-11-29T02:55:07.376Z,13.68
2022-11-29T02:55:47.649Z,18.23
2022-11-29T02:56:28.466Z,17.33
2022-11-29T02:57:10.059Z,13.13
2022-11-29T02:57:50.613Z,13.20
2022-11-29T02:58:27.987Z,10.77
2022-11-29T02:59:12.271Z,14.77
2022-11-29T02:59:53.437Z,16.02
2022-11-29T03:00:26.169Z,18.38
2022-11-29T03:01:08.940Z,15.98
2022-11-29T03:01:52.483Z,16.85
2022-11-29T03:02:37.302Z,13.20
2022-11-29T03:03:20.547Z,22.95
2022-11-29T03:04:02.782Z,12.23
2022-11-29T03:04:46.010Z,20.73
2022-11-29T03:05:24.809Z,14.35
2022-11-29T03:06:06.497Z,12.48
2022-11-29T03:06:49.434Z,12.93
2022-11-29T03:07:27.508Z,13.93
2022-11-29T03:08:08.839Z,14.27
2022-11-29T03:08:51.442Z,20.67
2022-11-29T03:09:32.784Z,9.10
2022-11-29T03:10:09.927Z,17.67
2022-11-29T03:10:55.290Z,14.90
2022-11-29T03:11:33.013Z,12.88
2022-11-29T03:12:16.513Z,11.45
2022-11-29T03:12:54.274Z,19.27
2022-11-29T03:13:38.234Z,12.75
2022-11-29T03:14:17.437Z,13.73
2022-11-29T03:15:00.295Z,15.48
2022-11-29T03:15:37.609Z,13.70
2022-11-29T03:16:19.232Z,12.95
2022-11-29T03:17:02.803Z,15.27
2022-11-29T03:17:47.894Z,13.45
2022-11-29T03:18:34.597Z,13.10
2022-11-29T03:19:31.507Z,19.27
2022-11-29T03:20:26.408Z,13.73
2022-11-29T03:21:12.687Z,12.57
2022-11-29T03:21:53.289Z,13.18
2022-11-29T03:22:39.961Z,11.70
2022-11-29T03:23:24.848Z,15.63
2022-11-29T03:24:01.423Z,16.77
2022-11-29T03:24:40.169Z,27.70
2022-11-29T03:25:22.322Z,14.25
2022-11-29T03:26:01.489Z,12.15
2022-11-29T03:26:41.654Z,11.93
2022-11-29T03:27:24.125Z,13.73
2022-11-29T03:28:01.450Z,14.15
2022-11-29T03:28:39.642Z,12.93
2022-11-29T03:29:22.303Z,13.30
2022-11-29T03:29:58.884Z,10.77
2022-11-29T03:30:34.690Z,12.18
2022-11-29T03:31:15.987Z,13.48
2022-11-29T03:31:54.445Z,13.82
2022-11-29T03:32:34.265Z,16.02
2022-11-29T03:33:15.780Z,14.88
2022-11-29T03:33:58.253Z,14.43
2022-11-29T03:34:48.609Z,17.15
2022-11-29T03:35:29.888Z,11.57
2022-11-29T03:36:08.231Z,18.17
2022-11-29T03:36:51.279Z,16.33
2022-11-29T03:37:29.813Z,18.92
2022-11-29T03:38:09.681Z,16.17
2022-11-29T03:38:47.334Z,13.05
2022-11-29T03:39:25.052Z,13.82
2022-11-29T03:40:08.853Z,31.95
2022-11-29T03:40:50.412Z,16.65
2022-11-29T03:41:27.787Z,19.08
2022-11-29T03:42:06.414Z,15.82
2022-11-29T03:42:44.339Z,17.50
2022-11-29T03:43:25.431Z,13.70
2022-11-29T03:44:04.348Z,16.42
2022-11-29T03:44:44.693Z,16.25
2022-11-29T03:46:00.715Z,12.00
2022-11-29T03:46:40.790Z,15.13
2022-11-29T03:47:15.532Z,11.52
2022-11-29T03:47:54.978Z,14.60
2022-11-29T03:48:34.353Z,15.27
2022-11-29T03:49:13.881Z,15.13
2022-11-29T03:49:49.869Z,14.85
2022-11-29T03:50:28.826Z,14.07
2022-11-29T03:51:05.901Z,19.67
2022-11-29T03:51:59.210Z,15.02
2022-11-29T03:52:41.011Z,27.67
2022-11-29T03:53:20.193Z,19.77
2022-11-29T03:53:57.613Z,15.88
2022-11-29T03:54:37.952Z,16.27
2022-11-29T03:55:57.728Z,19.75
2022-11-29T03:56:32.464Z,13.10
2022-11-29T03:57:05.300Z,13.48
2022-11-29T03:57:52.495Z,13.05
2022-11-29T03:58:41.159Z,11.70
2022-11-29T03:59:29.327Z,10.13
2022-11-29T04:00:06.896Z,14.10
2022-11-29T04:01:18.059Z,15.30
2022-11-29T04:02:19.893Z,16.75
2022-11-29T04:03:34.493Z,17.17
2022-11-29T04:04:34.798Z,16.10
2022-11-29T04:05:22.387Z,16.58
2022-11-29T04:06:24.410Z,14.15
2022-11-29T04:07:14.776Z,18.73
2022-11-29T04:08:10.828Z,20.10
2022-11-29T04:09:04.794Z,33.35
2022-11-29T04:09:53.473Z,18.25
2022-11-29T04:10:48.625Z,18.23
2022-11-29T04:12:01.545Z,17.38
2022-11-29T04:13:02.901Z,26.60
2022-11-29T04:13:59.361Z,24.00
2022-11-29T04:14:56.298Z,21.23
2022-11-29T04:15:52.800Z,14.75
2022-11-29T04:17:00.400Z,16.83
2022-11-29T04:18:09.195Z,28.27
2022-11-29T04:19:06.713Z,11.50
2022-11-29T04:20:09.500Z,14.65
2022-11-29T04:21:26.415Z,21.40
2022-11-29T04:22:30.582Z,24.50
2022-11-29T04:23:41.145Z,21.98
2022-11-29T04:24:39.021Z,30.75
2022-11-29T04:25:34.846Z,21.08
2022-11-29T04:26:34.877Z,16.10
2022-11-29T04:27:29.265Z,16.60
2022-11-29T04:28:23.191Z,18.00
2022-11-29T04:29:24.530Z,14.73
2022-11-29T04:30:09.494Z,16.27
2022-11-29T04:30:53.308Z,12.80
2022-11-29T04:31:40.780Z,15.25
2022-11-29T04:32:28.990Z,14.63
2022-11-29T04:33:30.365Z,14.05
2022-11-29T04:34:44.813Z,14.85
2022-11-29T04:35:36.698Z,10.07
2022-11-29T04:36:46.718Z,25.35
2022-11-29T04:37:51.937Z,20.70
2022-11-29T04:38:53.835Z,15.85
2022-11-29T04:40:04.122Z,14.48
2022-11-29T04:40:56.131Z,14.65
2022-11-29T04:42:04.081Z,14.70
2022-11-29T04:43:08.781Z,13.38
2022-11-29T04:44:13.804Z,14.00
2022-11-29T04:45:03.006Z,12.95
2022-11-29T04:46:08.270Z,14.40
2022-11-29T04:46:57.999Z,28.30
2022-11-29T04:47:51.092Z,18.45
2022-11-29T04:48:40.048Z,24.83
2022-11-29T04:49:32.960Z,20.10
2022-11-29T04:50:25.859Z,19.38
2022-11-29T04:51:15.843Z,18.88
2022-11-29T04:52:05.060Z,28.75
2022-11-29T04:52:50.426Z,14.40
2022-11-29T04:53:32.973Z,25.13
2022-11-29T04:54:16.906Z,27.17
2022-11-29T04:54:56.967Z,21.95
2022-11-29T04:55:42.817Z,22.85
2022-11-29T04:56:23.373Z,17.58
2022-11-29T04:57:01.987Z,17.13
2022-11-29T04:57:42.860Z,26.10
2022-11-29T04:58:23.945Z,23.67
2022-11-29T04:59:06.991Z,17.23
2022-11-29T04:59:44.821Z,20.48
2022-11-29T05:00:20.611Z,33.03
2022-11-29T05:01:04.884Z,30.85
2022-11-29T05:01:48.180Z,27.90
2022-11-29T05:02:32.673Z,18.23
2022-11-29T05:03:14.513Z,30.90
2022-11-29T05:03:57.031Z,19.75
2022-11-29T05:04:43.929Z,21.88
2022-11-29T05:05:27.433Z,30.77
2022-11-29T05:06:19.363Z,28.40
2022-11-29T05:07:02.920Z,27.83
2022-11-29T05:07:47.507Z,15.95
2022-11-29T05:08:29.579Z,22.83
2022-11-29T05:09:18.213Z,30.27
2022-11-29T05:09:59.633Z,29.48
2022-11-29T05:10:39.566Z,21.58
2022-11-29T05:11:26.483Z,24.92
2022-11-29T05:12:08.152Z,30.38
2022-11-29T05:12:51.870Z,30.15
2022-11-29T05:13:37.130Z,15.82
2022-11-29T05:14:16.889Z,36.67
2022-11-29T05:15:20.273Z,35.17
2022-11-29T07:29:13.957Z,150.43
2022-11-29T07:29:58.606Z,149.20
2022-11-29T07:30:40.077Z,134.02
2022-11-29T07:31:22.441Z,120.28
2022-11-29T07:32:06.577Z,141.18
2022-11-29T07:32:52.105Z,103.38
2022-11-29T07:33:37.103Z,121.25
2022-11-29T07:34:18.478Z,110.95
2022-11-29T07:35:03.903Z,136.45
2022-11-29T07:35:46.057Z,169.82
2022-11-29T07:36:28.674Z,112.57
2022-11-29T07:37:08.062Z,91.63
2022-11-29T07:37:53.517Z,98.50
2022-11-29T07:38:45.301Z,124.28
2022-11-29T07:39:28.258Z,110.80
2022-11-29T07:40:06.695Z,131.32
2022-11-29T07:40:48.871Z,145.10
2022-11-29T07:41:27.442Z,78.78
2022-11-29T07:42:08.718Z,118.35
2022-11-29T07:42:55.087Z,110.68
2022-11-29T07:43:44.013Z,97.40
2022-11-29T07:44:27.078Z,114.43
2022-11-29T07:45:12.212Z,126.70
2022-11-29T07:45:44.359Z,122.70
2022-11-29T07:46:16.505Z,115.72
2022-11-29T07:46:51.280Z,108.95
2022-11-29T07:47:23.394Z,165.98
2022-11-29T07:47:55.972Z,116.53
2022-11-29T07:48:30.656Z,120.18
2022-11-29T07:49:02.796Z,90.78
2022-11-29T07:49:34.894Z,131.98
2022-11-29T07:50:11.010Z,106.78
2022-11-29T07:50:43.985Z,110.75
2022-11-29T07:51:16.081Z,123.88
2022-11-29T07:51:51.061Z,97.75
2022-11-29T07:52:23.197Z,91.15
2022-11-29T07:52:56.180Z,125.72
2022-11-29T07:53:31.666Z,149.65
2022-11-29T07:54:04.729Z,169.35
2022-11-29T07:54:36.803Z,117.65
2022-11-29T07:55:18.900Z,111.68
2022-11-29T07:55:51.628Z,134.73
2022-11-29T07:56:23.725Z,150.60
2022-11-29T07:56:58.424Z,186.20
2022-11-29T07:57:30.513Z,133.35
2022-11-29T07:58:02.696Z,156.65
2022-11-29T07:58:37.429Z,151.55
2022-11-29T07:59:12.941Z,128.38
2022-11-29T07:59:50.215Z,128.85
2022-11-29T08:00:23.333Z,121.60
2022-11-29T08:00:58.068Z,156.57
2022-11-29T08:01:31.510Z,142.07
2022-11-29T08:02:11.472Z,121.20
2022-11-29T08:03:18.958Z,160.73
2022-11-29T08:03:51.064Z,122.45
2022-11-29T08:04:25.969Z,165.80
2022-11-29T08:04:58.731Z,141.13
2022-11-29T08:05:30.873Z,184.88
2022-11-29T08:06:05.768Z,201.30
2022-11-29T08:06:38.115Z,145.73
2022-11-29T08:07:13.257Z,126.25
2022-11-29T08:07:46.497Z,118.22
2022-11-29T08:08:21.407Z,154.10
2022-11-29T08:08:53.579Z,139.35
2022-11-29T08:09:25.684Z,133.60
2022-11-29T08:10:00.396Z,127.95
2022-11-29T08:10:32.983Z,137.57
2022-11-29T08:11:13.211Z,137.23
2022-11-29T08:11:45.289Z,150.57
2022-11-29T08:12:20.002Z,177.70
2022-11-29T08:12:52.228Z,134.52
2022-11-29T08:13:27.036Z,133.20
2022-11-29T08:14:00.357Z,152.35
2022-11-29T08:14:32.810Z,189.68
2022-11-29T08:15:12.077Z,176.88
2022-11-29T08:15:45.416Z,152.18
2022-11-29T08:16:20.900Z,189.05
2022-11-29T08:16:53.070Z,175.68
2022-11-29T08:17:27.783Z,151.98
2022-11-29T08:17:59.861Z,178.32
2022-11-29T08:18:32.032Z,195.85
2022-11-29T08:19:07.005Z,146.27
2022-11-29T08:19:39.106Z,142.10
2022-11-29T08:20:16.516Z,162.45
2022-11-29T08:20:49.242Z,157.63
2022-11-29T08:21:23.990Z,144.00
2022-11-29T08:21:56.175Z,112.13
2022-11-29T08:22:30.859Z,124.65
2022-11-29T08:23:03.495Z,127.35
2022-11-29T08:23:38.619Z,112.25
2022-11-29T08:24:10.980Z,101.18
2022-11-29T08:24:45.949Z,104.55
2022-11-29T08:25:18.314Z,99.82
2022-11-29T08:25:53.018Z,89.43
2022-11-29T08:26:31.079Z,115.00
2022-11-29T08:27:06.370Z,105.75
2022-11-29T08:27:39.428Z,71.15
2022-11-29T08:28:11.558Z,78.80
2022-11-29T08:28:46.577Z,60.17
2022-11-29T08:29:18.913Z,69.55
2022-11-29T08:29:53.585Z,77.40
2022-11-29T08:30:28.251Z,75.50
2022-11-29T08:31:01.918Z,85.57
2022-11-29T08:31:36.669Z,80.07
2022-11-29T08:32:09.212Z,73.43
2022-11-29T08:32:41.274Z,97.70
2022-11-29T08:33:15.955Z,99.75
2022-11-29T08:33:48.263Z,69.13
2022-11-29T08:34:23.032Z,82.88
2022-11-29T08:34:55.109Z,81.07
2022-11-29T08:35:27.201Z,122.43
2022-11-29T08:36:07.659Z,98.20
2022-11-29T08:37:11.916Z,103.55
2022-11-29T08:37:46.776Z,92.75
2022-11-29T08:38:18.862Z,74.13
2022-11-29T08:39:00.085Z,80.63
2022-11-29T08:39:34.473Z,83.03
2022-11-29T08:40:10.573Z,91.72
2022-11-29T08:40:45.245Z,74.47
2022-11-29T08:41:17.794Z,99.28
2022-11-29T08:41:52.577Z,100.70
2022-11-29T08:42:24.634Z,88.47
2022-11-29T08:42:57.990Z,85.53
2022-11-29T08:43:33.565Z,65.68
2022-11-29T08:44:05.950Z,111.03
2022-11-29T08:44:40.808Z,75.00
2022-11-29T08:45:13.382Z,56.90
2022-11-29T08:45:54.468Z,105.22
2022-11-29T08:46:46.966Z,84.93
2022-11-29T08:47:34.130Z,72.80
2022-11-29T08:48:09.672Z,95.55
2022-11-29T08:48:42.037Z,104.25
2022-11-29T08:49:14.182Z,118.00
2022-11-29T08:50:07.210Z,128.57
2022-11-29T08:50:41.973Z,126.32
2022-11-29T08:51:14.609Z,109.40
2022-11-29T08:51:46.685Z,107.10
2022-11-29T08:52:33.798Z,94.95
2022-11-29T08:53:20.883Z,109.68
2022-11-29T08:53:55.580Z,73.18
2022-11-29T08:54:27.785Z,144.05
2022-11-29T08:55:03.280Z,90.45
2022-11-29T08:55:40.685Z,114.97
2022-11-29T08:57:04.471Z,64.88
2022-11-29T08:58:05.725Z,63.88
2022-11-29T08:58:38.608Z,72.57
2022-11-29T08:59:13.534Z,86.55
2022-11-29T08:59:46.087Z,100.47
2022-11-29T09:00:19.411Z,95.13
2022-11-29T09:00:56.852Z,79.13
2022-11-29T09:01:29.407Z,67.18
2022-11-29T09:02:01.798Z,76.65
2022-11-29T09:02:36.625Z,75.20
2022-11-29T09:03:23.871Z,81.40
2022-11-29T09:04:07.721Z,67.47
2022-11-29T09:04:42.427Z,75.88
2022-11-29T09:05:15.314Z,77.03
2022-11-29T09:05:50.268Z,119.75
2022-11-29T09:06:22.381Z,105.63
2022-11-29T09:06:57.058Z,125.70
2022-11-29T09:07:29.164Z,108.35
2022-11-29T09:08:03.929Z,99.63
2022-11-29T09:08:36.001Z,85.53
2022-11-29T09:09:10.695Z,108.47
2022-11-29T09:09:42.755Z,119.68
2022-11-29T09:10:17.573Z,92.45
2022-11-29T09:10:49.669Z,89.15
2022-11-29T09:11:25.549Z,78.90
2022-11-29T09:11:57.714Z,117.43
2022-11-29T09:12:29.783Z,112.50
2022-11-29T09:13:04.455Z,104.18
2022-11-29T09:13:36.527Z,107.70
2022-11-29T09:14:14.642Z,102.70
2022-11-29T09:14:46.942Z,106.00
2022-11-29T09:15:21.990Z,112.55
2022-11-29T09:15:57.640Z,110.93
2022-11-29T09:16:33.791Z,87.57
2022-11-29T09:17:06.042Z,105.50
2022-11-29T09:17:40.724Z,90.50
2022-11-29T09:18:12.825Z,109.78
2022-11-29T09:18:51.291Z,135.10
2022-11-29T09:19:26.585Z,142.35
2022-11-29T09:19:58.661Z,135.65
2022-11-29T09:20:30.788Z,107.22
2022-11-29T09:21:09.070Z,125.53
2022-11-29T09:21:41.137Z,98.43
2022-11-29T09:22:15.877Z,111.68
2022-11-29T09:22:47.945Z,92.38
2022-11-29T09:23:22.603Z,89.50
2022-11-29T09:23:58.924Z,71.85
2022-11-29T09:24:33.865Z,84.43
2022-11-29T09:25:07.117Z,79.25
2022-11-29T09:25:39.355Z,78.85
2022-11-29T09:26:18.920Z,63.72
2022-11-29T09:26:51.006Z,76.80
2022-11-29T09:27:25.784Z,73.68
2022-11-29T09:28:01.371Z,65.43
2022-11-29T09:28:34.507Z,61.35
2022-11-29T09:29:09.826Z,86.90
2022-11-29T09:29:41.959Z,107.65
2022-11-29T09:30:16.999Z,76.22
2022-11-29T09:30:55.300Z,73.28
2022-11-29T09:31:31.466Z,55.33
2022-11-29T09:32:06.327Z,78.00
2022-11-29T09:32:38.496Z,77.63
2022-11-29T09:33:10.590Z,63.15
2022-11-29T09:33:45.698Z,58.30
2022-11-29T09:34:18.767Z,78.30
2022-11-29T09:34:53.487Z,62.80
2022-11-29T09:35:25.706Z,48.92
2022-11-29T09:35:58.198Z,60.83
2022-11-29T09:36:33.339Z,46.45
2022-11-29T09:37:05.819Z,66.47
2022-11-29T09:37:37.958Z,65.10
2022-11-29T09:38:14.632Z,50.75
2022-11-29T09:38:46.857Z,47.53
2022-11-29T09:39:21.794Z,45.28
2022-11-29T09:39:53.869Z,37.45
2022-11-29T09:40:36.483Z,59.92
2022-11-29T09:41:32.778Z,53.97
2022-11-29T09:42:42.430Z,93.90
2022-11-29T09:43:22.325Z,83.38
2022-11-29T09:44:07.525Z,75.95
2022-11-29T09:44:51.423Z,64.85
2022-11-29T09:45:32.921Z,71.70
2022-11-29T09:46:18.309Z,83.03
2022-11-29T09:47:04.961Z,90.70
2022-11-29T09:48:16.353Z,78.13
2022-11-29T09:49:13.838Z,56.15
2022-11-29T09:49:57.511Z,86.95
2022-11-29T09:50:36.950Z,75.50
2022-11-29T09:51:18.277Z,56.78
2022-11-29T09:51:57.963Z,47.20
2022-11-29T09:52:41.078Z,61.35
2022-11-29T09:53:30.143Z,51.38
2022-11-29T09:54:18.024Z,55.00
2022-11-29T09:55:00.122Z,99.15
2022-11-29T09:55:49.802Z,39.55
2022-11-29T09:56:31.684Z,66.70
2022-11-29T09:57:10.531Z,75.13
2022-11-29T09:57:46.806Z,51.80
2022-11-29T09:58:23.104Z,76.15
2022-11-29T09:59:01.658Z,52.47
2022-11-29T09:59:37.802Z,122.50
2022-11-29T10:00:20.530Z,91.43
2022-11-29T10:00:56.714Z,120.05
2022-11-29T10:01:36.837Z,65.13
2022-11-29T10:02:21.381Z,36.88
2022-11-29T10:03:03.570Z,66.13
2022-11-29T10:03:41.165Z,70.00
2022-11-29T10:04:21.349Z,89.35
2022-11-29T10:04:59.241Z,96.80
2022-11-29T10:05:38.968Z,68.57
2022-11-29T10:06:24.731Z,69.57
2022-11-29T10:07:02.857Z,91.35
2022-11-29T10:07:44.158Z,87.35
2022-11-29T10:08:24.210Z,88.03
2022-11-29T10:09:04.593Z,70.22
2022-11-29T10:10:21.405Z,54.13
2022-11-29T10:10:57.639Z,76.13
2022-11-29T10:11:38.725Z,62.10
2022-11-29T10:12:17.427Z,68.13
2022-11-29T10:12:56.401Z,79.90
2022-11-29T10:13:34.452Z,55.95
2022-11-29T10:14:15.925Z,75.43
2022-11-29T10:14:57.419Z,54.75
2022-11-29T10:15:35.736Z,66.75
2022-11-29T10:16:14.506Z,50.33
2022-11-29T10:16:55.551Z,70.55
2022-11-29T10:17:37.246Z,64.45
2022-11-29T10:18:19.679Z,71.45
2022-11-29T10:18:58.752Z,59.50
2022-11-29T10:19:39.337Z,57.28
2022-11-29T10:20:15.663Z,84.82
2022-11-29T10:20:53.429Z,75.13
2022-11-29T10:21:29.767Z,65.97
2022-11-29T10:22:08.881Z,68.07
2022-11-29T10:22:49.590Z,93.28
2022-11-29T10:23:30.243Z,102.53
2022-11-29T10:24:10.083Z,96.50
2022-11-29T10:24:48.111Z,72.18
2022-11-29T10:25:24.660Z,82.93
2022-11-29T10:26:00.914Z,68.15
2022-11-29T10:26:35.454Z,66.47
2022-11-29T10:27:17.079Z,74.32
2022-11-29T10:27:49.396Z,62.83
2022-11-29T10:28:27.552Z,56.08
2022-11-29T10:29:00.152Z,70.95
2022-11-29T10:29:34.822Z,52.13
2022-11-29T10:30:14.386Z,57.92
2022-11-29T10:30:49.500Z,70.90
2022-11-29T10:31:25.369Z,61.78
2022-11-29T10:32:10.060Z,90.88
2022-11-29T10:32:49.033Z,71.40
2022-11-29T10:33:27.085Z,66.15
2022-11-29T10:34:01.684Z,44.95
2022-11-29T10:34:36.813Z,73.28
2022-11-29T10:35:13.479Z,81.28
2022-11-29T10:35:48.819Z,66.82
2022-11-29T10:36:27.857Z,62.10
2022-11-29T10:37:03.389Z,62.40
2022-11-29T10:37:35.734Z,48.10
2022-11-29T10:38:30.796Z,52.10
2022-11-29T10:39:14.463Z,40.97
2022-11-29T10:39:52.007Z,61.47
2022-11-29T10:40:32.718Z,54.30
2022-11-29T10:41:12.338Z,36.50
2022-11-29T10:41:44.474Z,40.38
2022-11-29T10:42:33.896Z,57.67